createdAt,value
2023-03-27T00:00:16.809Z,2.55
2023-03-27T00:03:20.729Z,2.53
2023-03-27T00:06:25.109Z,2.63
2023-03-27T00:09:29.737Z,2.30
2023-03-27T00:12:33.625Z,2.77
2023-03-27T00:15:37.722Z,2.25
2023-03-27T00:18:40.554Z,1.55
2023-03-27T00:21:45.144Z,2.35
2023-03-27T00:24:47.825Z,2.80
2023-03-27T00:27:50.840Z,2.40
2023-03-27T00:30:55.936Z,1.80
2023-03-27T00:33:59.219Z,2.83
2023-03-27T00:37:04.820Z,2.25
2023-03-27T00:40:18.108Z,2.27
2023-03-27T00:43:29.169Z,3.13
2023-03-27T00:46:44.935Z,2.60
2023-03-27T00:49:49.688Z,2.63
2023-03-27T00:52:57.177Z,1.27
2023-03-27T00:56:03.694Z,3.10
2023-03-27T00:59:11.818Z,2.23
2023-03-27T01:02:16.041Z,2.20
2023-03-27T01:05:20.376Z,2.85
2023-03-27T01:08:25.639Z,2.30
2023-03-27T01:11:52.097Z,2.10
2023-03-27T01:15:21.399Z,1.70
2023-03-27T01:18:45.427Z,3.08
2023-03-27T01:22:05.106Z,2.63
2023-03-27T01:25:48.071Z,2.20
2023-03-27T01:29:09.029Z,2.63
2023-03-27T01:32:32.420Z,2.27
2023-03-27T01:35:54.185Z,1.75
2023-03-27T01:39:05.957Z,1.58
2023-03-27T01:42:09.548Z,2.63
2023-03-27T01:45:20.077Z,2.40
2023-03-27T01:48:43.771Z,1.80
2023-03-27T01:51:55.683Z,2.67
2023-03-27T01:55:05.185Z,2.72
2023-03-27T01:58:31.628Z,2.25
2023-03-27T02:01:42.552Z,2.33
2023-03-27T02:04:58.742Z,2.10
2023-03-27T02:08:10.600Z,2.28
2023-03-27T02:11:14.681Z,2.50
2023-03-27T02:14:28.720Z,2.53
2023-03-27T02:17:38.766Z,2.37
2023-03-27T02:20:43.145Z,1.93
2023-03-27T02:23:47.787Z,2.42
2023-03-27T02:26:54.941Z,2.47
2023-03-27T02:30:24.132Z,2.42
2023-03-27T02:33:59.254Z,2.20
2023-03-27T02:37:17.820Z,1.53
2023-03-27T02:40:46.846Z,2.45
2023-03-27T02:44:30.317Z,2.53
2023-03-27T02:47:52.785Z,3.00
2023-03-27T02:51:10.069Z,2.67
2023-03-27T02:54:23.900Z,1.87
2023-03-27T02:57:31.880Z,2.25
2023-03-27T03:01:01.605Z,2.08
2023-03-27T03:04:31.480Z,2.50
2023-03-27T03:07:49.933Z,2.20
2023-03-27T03:10:53.201Z,1.83
2023-03-27T03:13:56.432Z,2.20
2023-03-27T03:16:59.305Z,2.63
2023-03-27T03:20:02.145Z,1.52
2023-03-27T03:23:04.890Z,1.77
2023-03-27T03:26:08.143Z,1.53
2023-03-27T03:29:21.100Z,2.20
2023-03-27T03:32:39.703Z,2.55
2023-03-27T03:35:46.942Z,2.10
2023-03-27T03:39:00.139Z,2.07
2023-03-27T03:42:03.165Z,2.23
2023-03-27T03:45:06.901Z,2.60
2023-03-27T03:48:09.709Z,1.92
2023-03-27T03:51:13.231Z,1.45
2023-03-27T03:54:16.110Z,1.20
2023-03-27T03:57:19.652Z,2.00
2023-03-27T04:00:39.602Z,2.22
2023-03-27T04:03:49.913Z,1.55
2023-03-27T04:06:59.071Z,1.55
2023-03-27T04:10:10.001Z,3.27
2023-03-27T04:13:17.158Z,1.80
2023-03-27T04:16:29.291Z,2.40
2023-03-27T04:19:34.676Z,2.35
2023-03-27T04:22:51.371Z,1.98
2023-03-27T04:25:55.648Z,2.10
2023-03-27T04:29:10.496Z,2.37
2023-03-27T04:32:40.179Z,3.20
2023-03-27T04:36:09.633Z,1.73
2023-03-27T04:39:22.810Z,1.42
2023-03-27T04:42:25.627Z,2.23
2023-03-27T04:45:28.686Z,1.87
2023-03-27T04:48:31.469Z,2.13
2023-03-27T04:51:36.711Z,1.58
2023-03-27T04:54:40.745Z,1.88
2023-03-27T04:57:47.559Z,1.80
2023-03-27T05:00:50.921Z,1.67
2023-03-27T05:04:16.887Z,1.75
2023-03-27T05:07:38.279Z,1.90
2023-03-27T05:10:44.222Z,1.88
2023-03-27T05:13:47.058Z,2.13
2023-03-27T05:16:52.568Z,1.90
2023-03-27T05:19:57.035Z,1.65
2023-03-27T05:23:07.575Z,1.95
2023-03-27T05:26:10.428Z,2.30
2023-03-27T05:29:23.887Z,1.73
2023-03-27T05:32:35.821Z,1.63
2023-03-27T05:35:50.300Z,1.67
2023-03-27T05:38:54.330Z,1.58
2023-03-27T05:42:06.862Z,1.50
2023-03-27T05:45:12.382Z,2.00
2023-03-27T05:48:16.631Z,2.00
2023-03-27T05:51:20.715Z,2.15
2023-03-27T05:54:24.750Z,1.30
2023-03-27T05:57:31.645Z,1.58
2023-03-27T06:00:38.780Z,1.70
2023-03-27T06:03:45.890Z,2.33
2023-03-27T06:06:54.334Z,2.40
2023-03-27T06:09:57.799Z,4.15
2023-03-27T06:13:24.812Z,2.67
2023-03-27T06:16:34.315Z,4.83
2023-03-27T06:20:00.900Z,3.27
2023-03-27T06:23:11.081Z,2.83
2023-03-27T06:26:21.137Z,3.05
2023-03-27T06:29:29.247Z,4.10
2023-03-27T06:32:33.124Z,3.67
2023-03-27T06:35:37.058Z,4.87
2023-03-27T06:38:48.983Z,5.03
2023-03-27T06:41:53.443Z,3.38
2023-03-27T06:45:11.378Z,6.32
2023-03-27T06:48:34.447Z,3.27
2023-03-27T06:51:42.316Z,5.10
2023-03-27T06:54:50.430Z,4.68
2023-03-27T06:57:57.125Z,3.92
2023-03-27T07:01:00.137Z,3.65
2023-03-27T07:04:24.116Z,3.30
2023-03-27T07:07:41.817Z,5.87
2023-03-27T07:10:56.300Z,4.30
2023-03-27T07:14:19.950Z,3.95
2023-03-27T07:17:34.935Z,2.58
2023-03-27T07:20:50.579Z,4.13
2023-03-27T07:23:57.272Z,3.90
2023-03-27T07:27:17.618Z,3.65
2023-03-27T07:30:21.921Z,3.55
2023-03-27T07:33:24.889Z,4.95
2023-03-27T07:36:28.923Z,3.70
2023-03-27T07:39:36.694Z,3.37
2023-03-27T07:42:45.401Z,1.70
2023-03-27T07:45:57.722Z,5.25
2023-03-27T07:49:02.345Z,2.10
2023-03-27T07:52:05.540Z,3.03
2023-03-27T07:55:17.465Z,3.40
2023-03-27T07:58:29.022Z,3.25
2023-03-27T08:01:32.415Z,4.60
2023-03-27T08:04:36.590Z,3.47
2023-03-27T08:07:45.637Z,4.93
2023-03-27T08:10:55.256Z,4.03
2023-03-27T08:13:58.729Z,4.85
2023-03-27T08:17:14.542Z,3.72
2023-03-27T08:20:19.307Z,9.15
2023-03-27T08:23:27.314Z,4.67
2023-03-27T08:26:56.608Z,6.03
2023-03-27T08:30:01.572Z,5.85
2023-03-27T08:33:05.209Z,5.40
2023-03-27T08:36:11.647Z,5.53
2023-03-27T08:39:14.479Z,5.27
2023-03-27T08:42:44.130Z,4.57
2023-03-27T08:46:02.146Z,5.60
2023-03-27T08:49:14.544Z,5.68
2023-03-27T08:52:32.196Z,10.90
2023-03-27T08:55:42.704Z,3.13
2023-03-27T08:59:02.196Z,5.90
2023-03-27T09:02:20.555Z,5.75
2023-03-27T09:05:32.908Z,5.43
2023-03-27T09:08:57.287Z,3.00
2023-03-27T09:12:10.773Z,7.17
2023-03-27T09:15:44.400Z,4.80
2023-03-27T09:19:20.558Z,4.72
2023-03-27T09:22:28.146Z,5.78
2023-03-27T09:25:56.302Z,8.70
2023-03-27T09:29:30.161Z,9.03
2023-03-27T09:32:49.197Z,7.80
2023-03-27T09:35:52.069Z,3.85
2023-03-27T09:39:02.699Z,5.32
2023-03-27T09:42:19.476Z,3.88
2023-03-27T09:45:23.075Z,3.83
2023-03-27T09:48:40.226Z,4.30
2023-03-27T09:51:52.418Z,3.78
2023-03-27T09:55:31.502Z,6.05
2023-03-27T09:58:49.732Z,4.63
2023-03-27T10:02:00.283Z,6.43
2023-03-27T10:05:18.699Z,7.87
2023-03-27T10:08:37.962Z,5.55
2023-03-27T10:11:52.882Z,3.90
2023-03-27T10:15:01.720Z,8.73
2023-03-27T10:18:08.990Z,4.33
2023-03-27T10:21:20.500Z,5.33
2023-03-27T10:24:33.753Z,3.45
2023-03-27T10:28:16.848Z,7.50
2023-03-27T10:31:50.377Z,4.63
2023-03-27T10:35:21.090Z,7.27
2023-03-27T10:39:15.058Z,4.20
2023-03-27T10:42:40.967Z,10.23
2023-03-27T10:45:50.640Z,9.13
2023-03-27T10:49:17.289Z,5.93
2023-03-27T10:52:44.797Z,4.73
2023-03-27T10:56:52.109Z,4.47
2023-03-27T11:00:11.919Z,6.60
2023-03-27T11:03:38.883Z,5.00
2023-03-27T11:06:45.905Z,5.32
2023-03-27T11:10:10.371Z,5.00
2023-03-27T11:13:42.975Z,6.13
2023-03-27T11:16:54.046Z,5.95
2023-03-27T11:20:32.288Z,6.22
2023-03-27T11:23:58.153Z,7.85
2023-03-27T11:27:26.926Z,5.97
2023-03-27T11:30:46.717Z,7.13
2023-03-27T11:34:00.239Z,5.15
2023-03-27T11:37:18.114Z,4.95
2023-03-27T11:40:28.686Z,8.85
2023-03-27T11:43:38.663Z,8.97
2023-03-27T11:47:19.728Z,6.27
2023-03-27T11:50:50.535Z,14.63
2023-03-27T11:54:03.589Z,3.25
2023-03-27T11:57:24.194Z,7.13
2023-03-27T12:00:49.127Z,9.13
2023-03-27T12:04:12.570Z,5.00
2023-03-27T12:08:02.389Z,7.25
2023-03-27T12:11:07.501Z,7.60
2023-03-27T12:14:46.049Z,11.57
2023-03-27T12:18:07.993Z,6.83
2023-03-27T12:21:24.164Z,5.83
2023-03-27T12:25:06.319Z,11.80
2023-03-27T12:28:52.171Z,9.38
2023-03-27T12:32:43.692Z,6.70
2023-03-27T12:35:50.929Z,8.03
2023-03-27T12:38:56.407Z,6.03
2023-03-27T12:42:13.118Z,7.25
2023-03-27T12:45:22.712Z,7.45
2023-03-27T12:48:28.731Z,4.78
2023-03-27T12:51:53.967Z,5.40
2023-03-27T12:55:36.629Z,7.17
2023-03-27T12:58:41.164Z,7.00
2023-03-27T13:05:28.327Z,5.07
2023-03-27T13:09:02.258Z,7.63
2023-03-27T13:12:20.425Z,5.43
2023-03-27T13:15:32.355Z,6.65
2023-03-27T13:18:52.188Z,10.15
2023-03-27T13:22:23.833Z,6.97
2023-03-27T13:25:29.765Z,8.77
2023-03-27T13:28:40.303Z,10.07
2023-03-27T13:31:49.662Z,7.05
2023-03-27T13:35:23.848Z,11.85
2023-03-27T13:39:05.123Z,9.52
2023-03-27T13:42:15.673Z,7.60
2023-03-27T13:45:40.433Z,15.70
2023-03-27T13:49:49.573Z,7.85
2023-03-27T13:53:37.903Z,8.27
2023-03-27T13:57:10.006Z,5.97
2023-03-27T14:01:09.578Z,6.70
2023-03-27T14:04:37.989Z,5.70
2023-03-27T14:08:07.942Z,11.20
2023-03-27T14:12:10.587Z,10.80
2023-03-27T14:16:02.522Z,7.55
2023-03-27T14:19:34.980Z,11.20
2023-03-27T14:22:47.727Z,7.00
2023-03-27T14:26:06.824Z,5.70
2023-03-27T14:29:17.819Z,6.43
2023-03-27T14:32:26.688Z,6.22
2023-03-27T14:35:36.127Z,6.30
2023-03-27T14:38:44.382Z,7.20
2023-03-27T14:41:53.672Z,7.93
2023-03-27T14:45:27.606Z,7.85
2023-03-27T14:48:39.787Z,5.20
2023-03-27T14:51:49.867Z,7.87
2023-03-27T14:55:19.157Z,6.97
2023-03-27T14:58:28.581Z,7.60
2023-03-27T15:01:35.371Z,8.48
2023-03-27T15:04:40.378Z,9.75
2023-03-27T15:07:50.643Z,8.43
2023-03-27T15:11:14.291Z,5.70
2023-03-27T15:14:43.561Z,6.03
2023-03-27T15:17:46.809Z,4.93
2023-03-27T15:20:51.078Z,5.32
2023-03-27T15:24:05.803Z,8.90
2023-03-27T15:27:20.421Z,3.37
2023-03-27T15:30:27.514Z,5.10
2023-03-27T15:33:37.091Z,6.47
2023-03-27T15:36:43.224Z,5.85
2023-03-27T15:40:02.264Z,6.97
2023-03-27T15:43:14.267Z,5.77
2023-03-27T15:46:19.801Z,6.30
2023-03-27T15:49:30.493Z,3.85
2023-03-27T15:52:34.178Z,6.28
2023-03-27T15:55:47.775Z,4.53
2023-03-27T15:58:57.943Z,6.30
2023-03-27T16:02:14.126Z,4.22
2023-03-27T16:05:18.938Z,6.00
2023-03-27T16:08:31.785Z,5.95
2023-03-27T16:11:42.892Z,8.20
2023-03-27T16:14:57.789Z,4.10
2023-03-27T16:18:28.510Z,6.75
2023-03-27T16:21:36.268Z,5.20
2023-03-27T16:24:39.991Z,3.90
2023-03-27T16:27:43.645Z,2.70
2023-03-27T16:30:48.136Z,3.43
2023-03-27T16:33:51.488Z,3.95
2023-03-27T16:36:54.549Z,5.68
2023-03-27T16:39:58.871Z,7.10
2023-03-27T16:43:02.209Z,5.47
2023-03-27T16:46:06.877Z,3.50
2023-03-27T16:49:12.822Z,3.65
2023-03-27T16:52:15.688Z,4.07
2023-03-27T16:55:20.514Z,5.28
2023-03-27T16:58:23.656Z,7.10
2023-03-27T17:01:28.730Z,4.60
2023-03-27T17:04:34.529Z,3.63
2023-03-27T17:07:42.294Z,7.18
2023-03-27T17:10:47.487Z,6.10
2023-03-27T17:13:50.970Z,6.40
2023-03-27T17:16:54.455Z,4.03
2023-03-27T17:19:58.065Z,3.13
2023-03-27T17:23:08.825Z,4.68
2023-03-27T17:26:16.178Z,9.55
2023-03-27T17:29:19.310Z,4.03
2023-03-27T17:32:23.409Z,3.47
2023-03-27T17:35:28.208Z,5.60
2023-03-27T17:38:37.871Z,4.90
2023-03-27T17:41:41.623Z,4.03
2023-03-27T17:44:45.557Z,6.10
2023-03-27T17:47:49.268Z,3.43
2023-03-27T17:51:05.577Z,4.03
2023-03-27T17:54:13.144Z,3.33
2023-03-27T17:57:16.909Z,5.00
2023-03-27T18:00:21.430Z,4.50
2023-03-27T18:03:25.155Z,4.67
2023-03-27T18:06:28.785Z,3.88
2023-03-27T18:09:33.148Z,4.57
2023-03-27T18:12:36.507Z,4.90
2023-03-27T18:15:43.281Z,4.27
2023-03-27T18:18:48.156Z,7.47
2023-03-27T18:21:52.206Z,6.55
2023-03-27T18:24:55.738Z,5.32
2023-03-27T18:27:59.389Z,5.32
2023-03-27T18:31:09.526Z,3.43
2023-03-27T18:34:14.762Z,4.00
2023-03-27T18:37:21.103Z,7.50
2023-03-27T18:40:29.203Z,5.63
2023-03-27T18:43:34.216Z,5.88
2023-03-27T18:46:38.172Z,4.73
2023-03-27T18:49:45.052Z,3.47
2023-03-27T18:52:49.916Z,4.72
2023-03-27T18:55:55.139Z,4.70
2023-03-27T18:58:59.388Z,4.30
2023-03-27T19:02:03.564Z,4.67
2023-03-27T19:05:09.381Z,3.63
2023-03-27T19:08:13.859Z,4.85
2023-03-27T19:11:19.626Z,3.42
2023-03-27T19:15:09.832Z,4.93
2023-03-27T19:19:02.444Z,5.10
2023-03-27T19:22:38.784Z,4.40
2023-03-27T19:29:26.626Z,3.90
2023-03-27T19:32:31.130Z,5.80
2023-03-27T19:35:36.178Z,3.70
2023-03-27T19:38:39.399Z,4.20
2023-03-27T19:41:46.041Z,4.27
2023-03-27T19:44:50.156Z,4.00
2023-03-27T19:47:54.048Z,3.55
2023-03-27T19:51:03.269Z,4.90
2023-03-27T19:54:19.826Z,4.73
2023-03-27T19:57:23.911Z,3.63
2023-03-27T20:00:28.990Z,4.78
2023-03-27T20:03:35.503Z,4.50
2023-03-27T20:06:39.002Z,6.07
2023-03-27T20:09:43.118Z,4.47
2023-03-27T20:12:47.005Z,4.27
2023-03-27T20:15:52.816Z,4.15
2023-03-27T20:19:04.647Z,4.93
2023-03-27T20:22:09.396Z,4.68
2023-03-27T20:25:12.383Z,3.50
2023-03-27T20:28:16.948Z,4.17
2023-03-27T20:31:22.783Z,3.63
2023-03-27T20:34:29.204Z,4.78
2023-03-27T20:37:32.393Z,3.58
2023-03-27T20:40:53.252Z,5.23
2023-03-27T20:44:01.066Z,3.30
2023-03-27T20:47:11.183Z,4.85
2023-03-27T20:50:17.762Z,2.83
2023-03-27T20:53:33.960Z,5.32
2023-03-27T20:56:37.129Z,3.10
2023-03-27T20:59:40.600Z,4.00
2023-03-27T21:02:44.253Z,4.57
2023-03-27T21:05:47.359Z,2.85
2023-03-27T21:08:50.090Z,3.65
2023-03-27T21:11:54.558Z,3.23
2023-03-27T21:14:57.701Z,2.67
2023-03-27T21:18:01.176Z,4.00
2023-03-27T21:21:06.254Z,3.95
2023-03-27T21:24:13.395Z,3.35
2023-03-27T21:27:16.043Z,3.37
2023-03-27T21:30:19.873Z,2.90
2023-03-27T21:33:24.686Z,4.97
2023-03-27T21:36:29.508Z,4.28
2023-03-27T21:39:32.710Z,4.63
2023-03-27T21:42:36.247Z,2.80
2023-03-27T21:45:39.186Z,3.00
2023-03-27T21:48:44.764Z,4.78
2023-03-27T21:51:48.055Z,3.08
2023-03-27T21:55:02.523Z,3.60
2023-03-27T21:58:06.420Z,2.43
2023-03-27T22:01:10.030Z,4.47
2023-03-27T22:04:13.550Z,3.65
2023-03-27T22:07:17.023Z,5.00
2023-03-27T22:10:22.256Z,4.28
2023-03-27T22:13:25.129Z,3.23
2023-03-27T22:16:28.156Z,2.80
2023-03-27T22:19:31.242Z,3.00
2023-03-27T22:22:35.547Z,3.88
2023-03-27T22:25:38.287Z,3.40
2023-03-27T22:28:41.064Z,3.10
2023-03-27T22:31:43.892Z,3.47
2023-03-27T22:34:48.992Z,2.90
2023-03-27T22:37:51.666Z,2.80
2023-03-27T22:40:58.705Z,3.20
2023-03-27T22:44:02.261Z,3.40
2023-03-27T22:47:05.103Z,5.47
2023-03-27T22:50:08.804Z,3.03
2023-03-27T22:53:18.174Z,2.33
2023-03-27T22:56:22.493Z,3.22
2023-03-27T22:59:25.633Z,3.40
2023-03-27T23:02:28.454Z,3.13
2023-03-27T23:05:31.264Z,3.30
2023-03-27T23:08:34.366Z,2.60
2023-03-27T23:11:37.065Z,2.65
2023-03-27T23:14:39.861Z,3.77
2023-03-27T23:17:42.584Z,2.67
2023-03-27T23:20:45.968Z,3.30
2023-03-27T23:23:55.264Z,2.35
2023-03-27T23:26:58.729Z,2.42
2023-03-27T23:30:01.612Z,3.80
2023-03-27T23:33:04.890Z,3.60
2023-03-27T23:36:13.239Z,3.22
2023-03-27T23:39:16.186Z,2.13
2023-03-27T23:42:18.940Z,3.00
2023-03-27T23:45:22.069Z,2.90
2023-03-27T23:48:26.997Z,2.17
2023-03-27T23:51:29.773Z,2.63
2023-03-27T23:54:32.707Z,3.25
2023-03-27T23:57:35.681Z,3.20
